This is the latest recevied weather packets stored in our database for station/object BV5AB-33. If no packets are shown the sender has not sent any weather packets the latest 10 day(s).
| Time | Temp. | Humidity | Pressure | Rain* | Wind** | Luminosity | Snow |
|---|---|---|---|---|---|---|---|
| 1777398603 | 24.44° C | 69% | 980.9 hPa | 0 mm | - | - | - |
| 1777397402 | 24.44° C | 68% | 981.3 hPa | 0 mm | - | - | - |
| 1777397102 | 25° C | 68% | 981.2 hPa | 0 mm | - | - | - |
| 1777396203 | 25° C | 68% | 981.5 hPa | 0 mm | - | - | - |
| 1777392302 | 25° C | 69% | 981.8 hPa | 0 mm | - | - | - |
| 1777392003 | 25° C | 69% | 982 hPa | 0 mm | - | - | - |
| 1777391702 | 25° C | 69% | 982 hPa | 0 mm | - | - | - |
| 1777386902 | 25.56° C | 66% | 983.1 hPa | 0 mm | - | - | - |
| 1777384202 | 25.56° C | 64% | 982.9 hPa | 0 mm | - | - | - |
| 1777382103 | 25.56° C | 63% | 982.5 hPa | 0 mm | - | - | - |
| 1777381203 | 26.11° C | 63% | 982.4 hPa | 0 mm | - | - | - |
| 1777380303 | 26.11° C | 63% | 982.4 hPa | 0 mm | - | - | - |
| 1777379403 | 26.11° C | 62% | 982.3 hPa | 0 mm | - | - | - |
| 1777378802 | 26.67° C | 62% | 982.3 hPa | 0 mm | - | - | - |
| 1777377603 | 26.67° C | 61% | 982.1 hPa | 0 mm | - | - | - |
| 1777372203 | 27.78° C | 53% | 980.8 hPa | 0 mm | - | - | - |
| 1777371904 | 28.33° C | 52% | 980.8 hPa | 0 mm | - | - | - |
| 1777370103 | 28.89° C | 50% | 980.4 hPa | 0 mm | - | - | - |
| 1777369803 | 28.89° C | 50% | 980.7 hPa | 0 mm | - | - | - |
| 1777369203 | 28.89° C | 49% | 980.6 hPa | 0 mm | - | - | - |
| 1777364703 | 30.56° C | 50% | 980.5 hPa | 0 mm | - | - | - |
| 1777364404 | 30.56° C | 50% | 980.4 hPa | 0 mm | - | - | - |
| 1777364103 | 30.56° C | 50% | 980.4 hPa | 0 mm | - | - | - |
| 1777363203 | 30.56° C | 50% | 980.3 hPa | 0 mm | - | - | - |
| 1777362603 | 30.56° C | 50% | 980.5 hPa | 0 mm | - | - | - |
* Rain latest hour (hover to see other rain measurements)
** Current wind speed in m/s (hover to see current wind gust speed)